createdAt,value
2018-07-26T00:00:35.714Z,62.40
2018-07-26T00:01:35.739Z,62.40
2018-07-26T00:02:35.699Z,62.49
2018-07-26T00:03:35.769Z,62.29
2018-07-26T00:04:35.692Z,62.69
2018-07-26T00:05:35.662Z,62.10
2018-07-26T00:06:35.654Z,62.49
2018-07-26T00:07:35.672Z,62.59
2018-07-26T00:08:35.635Z,62.59
2018-07-26T00:09:35.623Z,62.69
2018-07-26T00:10:35.608Z,62.19
2018-07-26T00:11:35.632Z,62.19
2018-07-26T00:12:35.589Z,62.40
2018-07-26T00:13:35.578Z,62.40
2018-07-26T00:14:35.594Z,62.10
2018-07-26T00:15:35.561Z,62.89
2018-07-26T00:16:35.544Z,62.89
2018-07-26T00:17:35.566Z,62.89
2018-07-26T00:18:35.522Z,62.99
2018-07-26T00:19:35.576Z,63.19
2018-07-26T00:20:35.501Z,63.09
2018-07-26T00:21:35.506Z,63.09
2018-07-26T00:22:35.508Z,63.19
2018-07-26T00:23:35.467Z,63.22
2018-07-26T00:24:35.484Z,63.12
2018-07-26T00:25:35.473Z,63.39
2018-07-26T00:26:35.437Z,63.09
2018-07-26T00:27:35.502Z,63.02
2018-07-26T00:28:35.445Z,63.62
2018-07-26T00:29:35.401Z,63.52
2018-07-26T00:30:35.426Z,63.92
2018-07-26T00:31:35.383Z,63.72
2018-07-26T00:32:35.374Z,64.12
2018-07-26T00:33:35.358Z,64.12
2018-07-26T00:34:35.379Z,64.25
2018-07-26T00:35:35.335Z,64.54
2018-07-26T00:36:35.327Z,64.64
2018-07-26T00:37:35.319Z,64.75
2018-07-26T00:38:35.310Z,64.07
2018-07-26T00:39:35.316Z,64.67
2018-07-26T00:40:35.315Z,64.84
2018-07-26T00:41:35.281Z,64.87
2018-07-26T00:42:35.306Z,64.67
2018-07-26T00:43:35.284Z,64.78
2018-07-26T00:44:35.238Z,65.27
2018-07-26T00:45:35.232Z,65.17
2018-07-26T00:46:35.221Z,65.47
2018-07-26T00:47:35.239Z,65.47
2018-07-26T00:48:35.201Z,65.47
2018-07-26T00:49:35.209Z,65.57
2018-07-26T00:50:35.203Z,65.47
2018-07-26T00:51:35.170Z,65.47
2018-07-26T00:52:35.153Z,65.47
2018-07-26T00:53:35.145Z,65.37
2018-07-26T00:54:35.136Z,65.87
2018-07-26T00:55:35.162Z,65.97
2018-07-26T00:56:35.119Z,65.67
2018-07-26T00:57:35.107Z,65.70
2018-07-26T00:58:35.084Z,65.31
2018-07-26T00:59:35.123Z,65.91
2018-07-26T01:00:35.110Z,65.91
2018-07-26T01:01:35.063Z,66.40
2018-07-26T01:02:35.046Z,66.10
2018-07-26T01:03:35.037Z,66.53
2018-07-26T01:04:35.066Z,66.30
2018-07-26T01:05:35.012Z,66.83
2018-07-26T01:06:35.031Z,66.83
2018-07-26T01:07:34.989Z,67.13
2018-07-26T01:08:34.987Z,67.10
2018-07-26T01:09:35.011Z,67.13
2018-07-26T01:10:34.965Z,67.03
2018-07-26T01:11:35.000Z,67.13
2018-07-26T01:12:34.934Z,67.33
2018-07-26T01:13:34.922Z,67.43
2018-07-26T01:14:34.916Z,67.23
2018-07-26T01:15:34.903Z,67.76
2018-07-26T01:16:34.924Z,67.53
2018-07-26T01:17:34.879Z,67.63
2018-07-26T01:18:34.870Z,67.93
2018-07-26T01:19:34.861Z,68.06
2018-07-26T01:20:34.878Z,68.56
2018-07-26T01:21:34.835Z,68.46
2018-07-26T01:22:34.827Z,68.43
2018-07-26T01:23:34.855Z,68.66
2018-07-26T01:24:34.833Z,68.56
2018-07-26T01:25:34.795Z,68.96
2018-07-26T01:26:34.817Z,68.56
2018-07-26T01:27:34.766Z,68.96
2018-07-26T01:28:34.762Z,68.76
2018-07-26T01:29:34.760Z,68.56
2018-07-26T01:30:34.744Z,69.06
2018-07-26T01:31:34.758Z,69.16
2018-07-26T01:32:34.720Z,69.16
2018-07-26T01:33:34.704Z,69.26
2018-07-26T01:34:34.721Z,69.06
2018-07-26T01:35:34.685Z,69.06
2018-07-26T01:36:34.715Z,68.40
2018-07-26T01:37:34.657Z,68.29
2018-07-26T01:38:34.651Z,68.99
2018-07-26T01:39:34.635Z,69.59
2018-07-26T01:40:34.655Z,69.39
2018-07-26T01:41:34.622Z,69.20
2018-07-26T01:42:34.669Z,68.89
2018-07-26T01:43:34.623Z,69.29
2018-07-26T01:44:34.590Z,69.49
2018-07-26T01:45:34.605Z,70.19
2018-07-26T01:46:34.562Z,70.79
2018-07-26T01:47:34.576Z,70.39
2018-07-26T01:48:34.538Z,70.69
2018-07-26T01:49:34.523Z,69.49
2018-07-26T01:50:34.513Z,70.79
2018-07-26T01:51:34.501Z,69.59
2018-07-26T01:52:34.514Z,70.89
2018-07-26T01:53:34.516Z,70.19
2018-07-26T01:54:34.476Z,69.39
2018-07-26T01:55:34.455Z,70.09
2018-07-26T01:56:34.449Z,70.69
2018-07-26T01:57:34.481Z,70.59
2018-07-26T01:58:34.429Z,69.69
2018-07-26T01:59:34.444Z,70.49
2018-07-26T02:00:34.409Z,70.09
2018-07-26T02:01:34.409Z,70.29
2018-07-26T02:02:34.388Z,69.99
2018-07-26T02:03:34.379Z,69.99
2018-07-26T02:04:34.407Z,70.89
2018-07-26T02:05:34.349Z,70.29
2018-07-26T02:06:34.391Z,70.53
2018-07-26T02:07:34.332Z,70.83
2018-07-26T02:08:34.321Z,70.92
2018-07-26T02:09:34.336Z,71.03
2018-07-26T02:10:34.293Z,70.83
2018-07-26T02:11:34.286Z,71.03
2018-07-26T02:12:34.272Z,71.42
2018-07-26T02:13:34.259Z,71.33
2018-07-26T02:14:34.281Z,71.33
2018-07-26T02:15:34.243Z,71.42
2018-07-26T02:16:34.237Z,71.42
2018-07-26T02:17:34.223Z,71.12
2018-07-26T02:18:34.245Z,71.22
2018-07-26T02:19:34.198Z,71.33
2018-07-26T02:20:34.187Z,71.33
2018-07-26T02:21:34.182Z,71.83
2018-07-26T02:22:34.232Z,71.62
2018-07-26T02:23:34.177Z,71.22
2018-07-26T02:24:34.138Z,71.33
2018-07-26T02:25:34.156Z,71.42
2018-07-26T02:26:34.117Z,71.22
2018-07-26T02:27:34.140Z,71.52
2018-07-26T02:28:34.095Z,71.36
2018-07-26T02:29:34.108Z,71.72
2018-07-26T02:30:34.072Z,71.66
2018-07-26T02:31:34.066Z,71.76
2018-07-26T02:32:34.070Z,71.96
2018-07-26T02:33:34.067Z,71.86
2018-07-26T02:34:34.031Z,72.09
2018-07-26T02:35:34.038Z,72.59
2018-07-26T02:36:34.008Z,72.89
2018-07-26T02:37:34.010Z,72.59
2018-07-26T02:38:34.088Z,72.49
2018-07-26T02:39:34.006Z,72.49
2018-07-26T02:40:34.002Z,72.79
2018-07-26T02:41:33.960Z,72.79
2018-07-26T02:42:33.980Z,72.99
2018-07-26T02:43:33.934Z,72.59
2018-07-26T02:44:33.948Z,72.99
2018-07-26T02:45:33.913Z,73.09
2018-07-26T02:46:33.952Z,72.99
2018-07-26T02:47:33.926Z,73.09
2018-07-26T02:48:33.910Z,72.69
2018-07-26T02:49:33.871Z,73.03
2018-07-26T02:50:33.863Z,73.29
2018-07-26T02:51:33.872Z,73.19
2018-07-26T02:52:33.865Z,73.29
2018-07-26T02:53:33.866Z,73.33
2018-07-26T02:54:33.817Z,73.39
2018-07-26T02:55:33.806Z,73.09
2018-07-26T02:56:33.789Z,73.22
2018-07-26T02:57:33.809Z,73.53
2018-07-26T02:58:33.803Z,73.43
2018-07-26T02:59:33.763Z,73.33
2018-07-26T03:00:33.751Z,73.79
2018-07-26T03:01:33.744Z,73.53
2018-07-26T03:02:33.737Z,73.43
2018-07-26T03:03:33.745Z,73.53
2018-07-26T03:04:33.705Z,73.72
2018-07-26T03:05:33.701Z,73.63
2018-07-26T03:06:33.686Z,73.33
2018-07-26T03:07:33.676Z,73.13
2018-07-26T03:08:33.694Z,73.63
2018-07-26T03:09:33.681Z,73.59
2018-07-26T03:10:33.639Z,73.59
2018-07-26T03:11:33.633Z,73.09
2018-07-26T03:12:33.645Z,73.39
2018-07-26T03:13:33.605Z,73.09
2018-07-26T03:14:33.626Z,72.79
2018-07-26T03:15:33.594Z,73.09
2018-07-26T03:16:33.573Z,73.29
2018-07-26T03:17:33.563Z,72.69
2018-07-26T03:18:33.587Z,72.99
2018-07-26T03:19:33.551Z,73.39
2018-07-26T03:20:33.533Z,73.29
2018-07-26T03:21:33.526Z,73.69
2018-07-26T03:22:33.555Z,73.33
2018-07-26T03:23:33.505Z,73.63
2018-07-26T03:24:33.488Z,74.22
2018-07-26T03:25:33.480Z,74.22
2018-07-26T03:26:33.466Z,74.03
2018-07-26T03:27:33.491Z,73.72
2018-07-26T03:28:33.445Z,74.43
2018-07-26T03:29:33.457Z,73.63
2018-07-26T03:30:33.422Z,74.13
2018-07-26T03:31:33.482Z,74.33
2018-07-26T03:32:33.409Z,74.13
2018-07-26T03:33:33.420Z,74.13
2018-07-26T03:34:33.383Z,74.33
2018-07-26T03:35:33.371Z,74.56
2018-07-26T03:36:33.354Z,74.63
2018-07-26T03:37:33.357Z,74.76
2018-07-26T03:38:33.364Z,74.43
2018-07-26T03:39:33.357Z,74.87
2018-07-26T03:40:33.313Z,75.26
2018-07-26T03:41:33.301Z,75.26
2018-07-26T03:42:33.288Z,74.66
2018-07-26T03:43:33.359Z,75.06
2018-07-26T03:44:33.267Z,75.37
2018-07-26T03:45:33.284Z,74.66
2018-07-26T03:46:33.251Z,74.96
2018-07-26T03:47:33.237Z,74.96
2018-07-26T03:48:33.252Z,74.87
2018-07-26T03:49:33.214Z,74.73
2018-07-26T03:50:33.207Z,75.26
2018-07-26T03:51:33.228Z,75.26
2018-07-26T03:52:33.197Z,74.83
2018-07-26T03:53:33.170Z,74.96
2018-07-26T03:54:33.161Z,74.76
2018-07-26T03:55:33.176Z,74.93
2018-07-26T03:56:33.149Z,74.93
2018-07-26T03:57:33.160Z,74.83
2018-07-26T03:58:33.116Z,74.56
2018-07-26T03:59:33.111Z,74.33
2018-07-26T04:00:33.092Z,74.63
2018-07-26T04:01:33.120Z,74.53
2018-07-26T04:02:33.071Z,74.83
2018-07-26T04:03:33.065Z,74.83
2018-07-26T04:04:33.052Z,75.26
2018-07-26T04:05:33.057Z,75.06
2018-07-26T04:06:33.060Z,74.96
2018-07-26T04:07:33.021Z,75.46
2018-07-26T04:08:33.118Z,75.26
2018-07-26T04:09:32.995Z,75.37
2018-07-26T04:10:32.985Z,75.37
2018-07-26T04:11:32.979Z,76.06
2018-07-26T04:12:32.999Z,75.96
2018-07-26T04:13:32.952Z,76.17
2018-07-26T04:14:32.943Z,75.87
2018-07-26T04:15:32.932Z,75.80
2018-07-26T04:16:32.920Z,75.96
2018-07-26T04:17:32.954Z,75.76
2018-07-26T04:18:32.895Z,75.76
2018-07-26T04:19:32.885Z,75.96
2018-07-26T04:20:32.885Z,75.96
2018-07-26T04:21:32.879Z,76.17
2018-07-26T04:22:32.886Z,75.76
2018-07-26T04:23:32.847Z,75.56
2018-07-26T04:24:32.834Z,76.17
2018-07-26T04:25:32.873Z,76.26
2018-07-26T04:26:32.809Z,76.56
2018-07-26T04:27:32.819Z,77.17
2018-07-26T04:28:32.787Z,77.06
2018-07-26T04:29:32.778Z,77.00
2018-07-26T04:30:32.794Z,76.97
2018-07-26T04:31:32.755Z,76.87
2018-07-26T04:32:32.749Z,77.06
2018-07-26T04:33:32.735Z,76.97
2018-07-26T04:34:32.724Z,76.97
2018-07-26T04:35:32.772Z,76.76
2018-07-26T04:36:32.802Z,77.17
2018-07-26T04:37:32.687Z,77.20
2018-07-26T04:38:32.679Z,76.87
2018-07-26T04:39:32.661Z,76.97
2018-07-26T04:40:32.681Z,77.17
2018-07-26T04:41:32.684Z,77.47
2018-07-26T04:42:32.633Z,77.17
2018-07-26T04:43:32.618Z,77.56
2018-07-26T04:44:32.611Z,77.26
2018-07-26T04:45:32.598Z,77.47
2018-07-26T04:46:32.626Z,77.56
2018-07-26T04:47:32.579Z,76.97
2018-07-26T04:48:32.572Z,76.97
2018-07-26T04:49:32.553Z,76.97
2018-07-26T04:50:32.582Z,77.26
2018-07-26T04:51:32.546Z,76.83
2018-07-26T04:52:32.522Z,76.87
2018-07-26T04:53:32.514Z,76.33
2018-07-26T04:54:32.573Z,75.76
2018-07-26T04:55:32.498Z,75.73
2018-07-26T04:56:32.478Z,76.03
2018-07-26T04:57:32.473Z,75.93
2018-07-26T04:58:32.491Z,75.93
2018-07-26T04:59:32.449Z,76.43
2018-07-26T05:00:32.441Z,75.93
2018-07-26T05:01:32.427Z,75.49
2018-07-26T05:02:32.454Z,75.49
2018-07-26T05:03:32.407Z,75.09
2018-07-26T05:04:32.426Z,75.39
2018-07-26T05:05:32.395Z,75.39
2018-07-26T05:06:32.378Z,75.26
2018-07-26T05:07:32.404Z,75.39
2018-07-26T05:08:32.385Z,75.16
2018-07-26T05:09:32.345Z,75.16
2018-07-26T05:10:32.324Z,75.35
2018-07-26T05:11:32.321Z,74.85
2018-07-26T05:12:32.309Z,75.16
2018-07-26T05:13:32.329Z,75.16
2018-07-26T05:14:32.292Z,75.26
2018-07-26T05:15:32.272Z,74.96
2018-07-26T05:16:32.264Z,74.55
2018-07-26T05:17:32.284Z,74.96
2018-07-26T05:18:32.348Z,74.76
2018-07-26T05:19:32.229Z,75.26
2018-07-26T05:20:32.223Z,75.16
2018-07-26T05:21:32.212Z,75.26
2018-07-26T05:22:32.239Z,75.22
2018-07-26T05:23:32.226Z,75.32
2018-07-26T05:24:32.212Z,75.05
2018-07-26T05:25:32.164Z,74.42
2018-07-26T05:26:32.164Z,74.22
2018-07-26T05:27:32.146Z,74.02
2018-07-26T05:28:32.157Z,74.19
2018-07-26T05:29:32.122Z,74.08
2018-07-26T05:30:32.138Z,73.49
2018-07-26T05:31:32.128Z,73.69
2018-07-26T05:32:32.093Z,73.39
2018-07-26T05:33:32.085Z,73.49
2018-07-26T05:34:32.107Z,73.15
2018-07-26T05:35:32.060Z,73.15
2018-07-26T05:36:32.048Z,72.55
2018-07-26T05:37:32.035Z,72.65
2018-07-26T05:38:32.055Z,72.65
2018-07-26T05:39:32.024Z,72.42
2018-07-26T05:40:32.015Z,72.52
2018-07-26T05:41:31.990Z,72.12
2018-07-26T05:42:31.983Z,72.02
2018-07-26T05:43:32.002Z,71.72
2018-07-26T05:44:31.959Z,71.62
2018-07-26T05:45:31.949Z,71.42
2018-07-26T05:46:31.939Z,71.02
2018-07-26T05:47:31.973Z,70.42
2018-07-26T05:48:31.913Z,70.62
2018-07-26T05:49:31.908Z,70.53
2018-07-26T05:50:31.896Z,70.59
2018-07-26T05:51:31.881Z,70.92
2018-07-26T05:52:31.930Z,70.29
2018-07-26T05:53:31.859Z,69.99
2018-07-26T05:54:31.851Z,70.29
2018-07-26T05:55:31.853Z,70.19
2018-07-26T05:56:31.826Z,70.69
2018-07-26T05:57:31.841Z,70.79
2018-07-26T05:58:31.803Z,70.29
2018-07-26T05:59:31.822Z,69.89
2018-07-26T06:00:31.829Z,69.86
2018-07-26T06:01:31.776Z,69.79
2018-07-26T06:02:31.763Z,70.86
2018-07-26T06:03:31.809Z,69.96
2018-07-26T06:04:31.747Z,70.36
2018-07-26T06:05:31.753Z,70.36
2018-07-26T06:06:31.717Z,70.36
2018-07-26T06:07:31.708Z,69.46
2018-07-26T06:08:31.705Z,69.43
2018-07-26T06:09:31.755Z,68.33
2018-07-26T06:10:31.674Z,69.53
2018-07-26T06:11:31.667Z,69.43
2018-07-26T06:12:31.654Z,70.32
2018-07-26T06:13:31.640Z,68.83
2018-07-26T06:14:31.673Z,69.23
2018-07-26T06:15:31.618Z,68.50
2018-07-26T06:16:31.612Z,68.13
2018-07-26T06:17:31.630Z,68.50
2018-07-26T06:18:31.586Z,68.00
2018-07-26T06:19:31.577Z,68.60
2018-07-26T06:20:31.642Z,68.79
2018-07-26T06:21:31.554Z,68.70
2018-07-26T06:22:31.548Z,66.87
2018-07-26T06:23:31.529Z,67.77
2018-07-26T06:24:31.523Z,67.86
2018-07-26T06:25:31.558Z,66.77
2018-07-26T06:26:31.505Z,68.86
2018-07-26T06:27:31.517Z,68.56
2018-07-26T06:28:31.477Z,68.66
2018-07-26T06:29:31.469Z,67.07
2018-07-26T06:30:31.490Z,68.76
2018-07-26T06:31:31.448Z,67.14
2018-07-26T06:32:31.433Z,67.33
2018-07-26T06:33:31.539Z,67.24
2018-07-26T06:34:31.413Z,67.33
2018-07-26T06:35:31.400Z,67.14
2018-07-26T06:36:31.423Z,67.04
2018-07-26T06:37:31.380Z,67.11
2018-07-26T06:38:31.401Z,68.30
2018-07-26T06:39:31.381Z,67.21
2018-07-26T06:40:31.349Z,67.11
2018-07-26T06:41:31.342Z,66.31
2018-07-26T06:42:31.328Z,65.91
2018-07-26T06:43:31.344Z,65.02
2018-07-26T06:44:31.304Z,64.42
2018-07-26T06:45:31.290Z,64.72
2018-07-26T06:46:31.288Z,65.68
2018-07-26T06:47:31.270Z,64.52
2018-07-26T06:48:31.286Z,64.39
2018-07-26T06:49:31.260Z,64.29
2018-07-26T06:50:31.238Z,64.00
2018-07-26T06:51:31.237Z,64.09
2018-07-26T06:52:31.259Z,64.09
2018-07-26T06:53:31.205Z,64.39
2018-07-26T06:54:31.198Z,64.29
2018-07-26T06:55:31.214Z,64.00
2018-07-26T06:56:31.262Z,63.67
2018-07-26T06:57:31.163Z,63.37
2018-07-26T06:58:31.150Z,63.07
2018-07-26T06:59:31.160Z,63.37
2018-07-26T07:00:31.154Z,62.74
2018-07-26T07:01:31.146Z,62.27
2018-07-26T07:02:31.122Z,61.58
2018-07-26T07:03:31.099Z,61.65
2018-07-26T07:04:31.162Z,60.56
2018-07-26T07:05:31.087Z,60.46
2018-07-26T07:06:31.101Z,59.66
2018-07-26T07:07:31.053Z,60.33
2018-07-26T07:08:31.054Z,60.33
2018-07-26T07:09:31.044Z,60.33
2018-07-26T07:10:31.091Z,61.42
2018-07-26T07:11:31.010Z,61.42
2018-07-26T07:12:31.001Z,60.93
2018-07-26T07:13:30.991Z,60.20
2018-07-26T07:14:31.019Z,60.30
2018-07-26T07:15:30.965Z,59.91
2018-07-26T07:16:30.962Z,59.70
2018-07-26T07:17:30.988Z,59.70
2018-07-26T07:18:30.941Z,59.51
2018-07-26T07:19:30.927Z,59.51
2018-07-26T07:20:30.975Z,58.91
2018-07-26T07:21:30.904Z,58.59
2018-07-26T07:22:30.931Z,57.99
2018-07-26T07:23:30.887Z,57.20
2018-07-26T07:24:30.874Z,57.10
2018-07-26T07:25:30.861Z,57.86
2018-07-26T07:26:30.849Z,57.00
2018-07-26T07:27:30.880Z,56.60
2018-07-26T07:28:30.836Z,55.71
2018-07-26T07:29:30.820Z,55.49
2018-07-26T07:30:30.818Z,55.68
2018-07-26T07:31:30.834Z,55.78
2018-07-26T07:32:30.797Z,55.49
2018-07-26T07:33:30.808Z,54.99
2018-07-26T07:34:30.767Z,54.49
2018-07-26T07:35:30.805Z,53.90
2018-07-26T07:36:30.885Z,53.80
2018-07-26T07:37:30.745Z,54.00
2018-07-26T07:38:30.729Z,54.20
2018-07-26T07:39:30.706Z,54.49
2018-07-26T07:40:30.728Z,54.60
2018-07-26T07:41:30.691Z,54.39
2018-07-26T07:42:30.709Z,53.90
2018-07-26T07:43:30.669Z,54.10
2018-07-26T07:44:30.661Z,53.60
2018-07-26T07:45:30.645Z,53.50
2018-07-26T07:46:30.645Z,53.60
2018-07-26T07:47:30.704Z,53.41
2018-07-26T07:48:30.615Z,53.88
2018-07-26T07:49:30.631Z,53.67
2018-07-26T07:50:30.592Z,54.20
2018-07-26T07:51:30.595Z,53.88
2018-07-26T07:52:30.569Z,54.37
2018-07-26T07:53:30.561Z,54.67
2018-07-26T07:54:30.581Z,54.57
2018-07-26T07:55:30.538Z,55.26
2018-07-26T07:56:30.571Z,55.76
2018-07-26T07:57:30.558Z,57.24
2018-07-26T07:58:30.518Z,57.74
2018-07-26T07:59:30.570Z,57.84
2018-07-26T08:00:30.505Z,58.03
2018-07-26T08:01:30.508Z,57.64
2018-07-26T08:02:30.515Z,57.61
2018-07-26T08:03:30.465Z,57.51
2018-07-26T08:04:30.451Z,58.11
2018-07-26T08:05:30.437Z,57.61
2018-07-26T08:06:30.424Z,57.61
2018-07-26T08:07:30.450Z,56.72
2018-07-26T08:08:30.403Z,57.31
2018-07-26T08:09:30.430Z,56.72
2018-07-26T08:10:30.382Z,56.52
2018-07-26T08:11:30.377Z,56.62
2018-07-26T08:12:30.364Z,56.10
2018-07-26T08:13:30.349Z,55.90
2018-07-26T08:14:30.421Z,55.90
2018-07-26T08:15:30.328Z,55.41
2018-07-26T08:16:30.411Z,56.00
2018-07-26T08:17:30.303Z,54.91
2018-07-26T08:18:30.297Z,55.01
2018-07-26T08:19:30.308Z,54.69
2018-07-26T08:20:30.266Z,54.79
2018-07-26T08:21:30.259Z,54.49
2018-07-26T08:22:30.246Z,54.39
2018-07-26T08:23:30.271Z,54.19
2018-07-26T08:24:30.275Z,53.99
2018-07-26T08:25:30.216Z,53.89
2018-07-26T08:26:30.204Z,53.57
2018-07-26T08:27:30.194Z,53.38
2018-07-26T08:28:30.178Z,53.97
2018-07-26T08:29:30.269Z,53.67
2018-07-26T08:30:30.163Z,53.05
2018-07-26T08:31:30.156Z,52.06
2018-07-26T08:32:30.263Z,51.97
2018-07-26T08:33:30.131Z,51.97
2018-07-26T08:34:30.119Z,51.84
2018-07-26T08:35:30.155Z,51.75
2018-07-26T08:36:30.096Z,51.64
2018-07-26T08:37:30.084Z,50.16
2018-07-26T08:38:30.075Z,50.26
2018-07-26T08:39:30.072Z,50.16
2018-07-26T08:40:30.096Z,50.14
2018-07-26T08:41:30.084Z,50.24
2018-07-26T08:42:30.037Z,50.34
2018-07-26T08:43:30.062Z,50.02
2018-07-26T08:44:30.013Z,47.94
2018-07-26T08:45:30.000Z,48.63
2018-07-26T08:46:30.018Z,48.14
2018-07-26T08:47:30.008Z,48.74
2018-07-26T08:48:29.973Z,48.81
2018-07-26T08:49:29.958Z,48.32
2018-07-26T08:50:29.951Z,48.22
2018-07-26T08:51:29.970Z,48.39
2018-07-26T08:52:29.928Z,47.41
2018-07-26T08:53:29.921Z,46.62
2018-07-26T08:54:29.906Z,47.09
2018-07-26T08:55:29.927Z,47.19
2018-07-26T08:56:29.914Z,46.50
2018-07-26T08:57:29.911Z,46.37
2018-07-26T08:58:29.865Z,46.47
2018-07-26T08:59:29.850Z,46.47
2018-07-26T09:00:29.848Z,45.49
2018-07-26T09:01:29.831Z,45.27
2018-07-26T09:02:29.863Z,45.27
2018-07-26T09:03:29.809Z,44.78
2018-07-26T09:04:29.806Z,44.98
2018-07-26T09:05:29.791Z,44.48
2018-07-26T09:06:29.808Z,44.19
2018-07-26T09:07:29.765Z,43.68
2018-07-26T09:08:29.759Z,43.97
2018-07-26T09:09:29.748Z,43.68
2018-07-26T09:10:29.746Z,43.57
2018-07-26T09:11:29.772Z,43.46
2018-07-26T09:12:29.789Z,44.15
2018-07-26T09:13:29.783Z,44.15
2018-07-26T09:14:29.692Z,43.95
2018-07-26T09:15:29.711Z,44.15
2018-07-26T09:16:29.721Z,44.15
2018-07-26T09:17:29.666Z,43.73
2018-07-26T09:18:29.649Z,43.53
2018-07-26T09:19:29.641Z,43.33
2018-07-26T09:20:29.639Z,43.73
2018-07-26T09:21:29.647Z,43.24
2018-07-26T09:22:29.610Z,42.94
2018-07-26T09:23:29.596Z,43.63
2018-07-26T09:24:29.643Z,43.41
2018-07-26T09:25:29.608Z,43.51
2018-07-26T09:26:29.563Z,43.32
2018-07-26T09:27:29.553Z,43.32
2018-07-26T09:28:29.561Z,43.32
2018-07-26T09:29:29.533Z,43.12
2018-07-26T09:30:29.552Z,42.33
2018-07-26T09:31:29.511Z,44.10
2018-07-26T09:32:29.500Z,44.49
2018-07-26T09:33:29.488Z,43.32
2018-07-26T09:34:29.511Z,43.80
2018-07-26T09:35:29.552Z,43.80
2018-07-26T09:36:29.476Z,44.40
2018-07-26T09:37:29.481Z,45.85
2018-07-26T09:38:29.439Z,44.89
2018-07-26T09:39:29.427Z,44.96
2018-07-26T09:40:29.416Z,44.87
2018-07-26T09:41:29.457Z,44.67
2018-07-26T09:42:29.401Z,43.39
2018-07-26T09:43:29.426Z,45.24
2018-07-26T09:44:29.377Z,42.58
2018-07-26T09:45:29.371Z,44.08
2018-07-26T09:46:29.393Z,42.19
2018-07-26T09:47:29.401Z,42.29
2018-07-26T09:48:29.340Z,42.19
2018-07-26T09:49:29.334Z,42.00
2018-07-26T09:50:29.352Z,42.49
2018-07-26T09:51:29.299Z,43.27
2018-07-26T09:52:29.334Z,43.27
2018-07-26T09:53:29.288Z,43.27
2018-07-26T09:54:29.278Z,43.47
2018-07-26T09:55:29.297Z,43.35
2018-07-26T09:56:29.256Z,42.96
2018-07-26T09:57:29.246Z,41.19
2018-07-26T09:58:29.237Z,43.55
2018-07-26T09:59:29.219Z,42.37
2018-07-26T10:00:29.268Z,41.98
2018-07-26T10:01:29.196Z,41.19
2018-07-26T10:02:29.186Z,42.08
2018-07-26T10:03:29.173Z,42.86
2018-07-26T10:04:29.191Z,41.78
2018-07-26T10:05:29.153Z,42.47
2018-07-26T10:06:29.144Z,41.66
2018-07-26T10:07:29.167Z,42.05
2018-07-26T10:08:29.166Z,41.27
2018-07-26T10:09:29.111Z,39.90
2018-07-26T10:10:29.112Z,40.09
2018-07-26T10:11:29.114Z,40.88
2018-07-26T10:12:29.127Z,41.15
2018-07-26T10:13:29.102Z,40.48
2018-07-26T10:14:29.097Z,40.47
2018-07-26T10:15:29.049Z,40.19
2018-07-26T10:16:29.032Z,39.39
2018-07-26T10:17:29.031Z,39.09
2018-07-26T10:18:29.015Z,40.27
2018-07-26T10:19:29.053Z,38.41
2018-07-26T10:20:28.992Z,38.02
2018-07-26T10:21:28.986Z,38.70
2018-07-26T10:22:28.976Z,38.10
2018-07-26T10:23:28.965Z,38.39
2018-07-26T10:24:28.990Z,38.10
2018-07-26T10:25:28.944Z,39.54
2018-07-26T10:26:28.969Z,37.49
2018-07-26T10:27:28.925Z,38.18
2018-07-26T10:28:28.918Z,38.76
2018-07-26T10:29:28.975Z,39.94
2018-07-26T10:30:28.898Z,37.59
2018-07-26T10:31:28.879Z,38.08
2018-07-26T10:32:28.871Z,38.18
2018-07-26T10:33:28.863Z,38.08
2018-07-26T10:34:28.890Z,38.18
2018-07-26T10:35:28.877Z,38.08
2018-07-26T10:36:28.831Z,37.59
2018-07-26T10:37:28.819Z,37.10
2018-07-26T10:38:28.813Z,37.00
2018-07-26T10:39:28.808Z,36.90
2018-07-26T10:40:28.832Z,37.29
2018-07-26T10:41:28.780Z,35.44
2018-07-26T10:42:28.766Z,35.91
2018-07-26T10:43:28.773Z,36.02
2018-07-26T10:44:28.762Z,35.71
2018-07-26T10:45:28.882Z,38.65
2018-07-26T10:46:28.730Z,35.71
2018-07-26T10:47:28.716Z,35.91
2018-07-26T10:48:28.726Z,34.74
2018-07-26T10:49:28.705Z,35.61
2018-07-26T10:50:28.737Z,35.81
2018-07-26T10:51:28.677Z,37.35
2018-07-26T10:52:28.663Z,38.14
2018-07-26T10:53:28.668Z,37.67
2018-07-26T10:54:28.647Z,35.03
2018-07-26T10:55:28.676Z,35.91
2018-07-26T10:56:28.622Z,35.91
2018-07-26T10:57:28.626Z,34.14
2018-07-26T10:58:28.608Z,34.74
2018-07-26T10:59:28.596Z,37.18
2018-07-26T11:00:28.622Z,35.32
2018-07-26T11:01:28.580Z,37.47
2018-07-26T11:02:28.596Z,37.77
2018-07-26T11:03:28.557Z,37.37
2018-07-26T11:04:28.565Z,35.71
2018-07-26T11:05:28.539Z,37.37
2018-07-26T11:06:28.553Z,36.71
2018-07-26T11:07:28.515Z,35.24
2018-07-26T11:08:28.509Z,35.24
2018-07-26T11:09:28.532Z,34.45
2018-07-26T11:10:28.567Z,33.75
2018-07-26T11:11:28.472Z,35.52
2018-07-26T11:12:28.486Z,35.34
2018-07-26T11:13:28.454Z,35.52
2018-07-26T11:14:28.474Z,33.56
2018-07-26T11:15:28.435Z,34.54
2018-07-26T11:16:28.473Z,35.22
2018-07-26T11:17:28.454Z,35.81
2018-07-26T11:18:28.398Z,36.10
2018-07-26T11:19:28.389Z,35.52
2018-07-26T11:20:28.384Z,36.90
2018-07-26T11:21:28.379Z,34.83
2018-07-26T11:22:28.394Z,35.03
2018-07-26T11:23:28.351Z,33.75
2018-07-26T11:24:28.347Z,35.03
2018-07-26T11:25:28.365Z,34.34
2018-07-26T11:26:28.322Z,33.95
2018-07-26T11:27:28.338Z,33.17
2018-07-26T11:28:28.338Z,34.64
2018-07-26T11:29:28.288Z,34.05
2018-07-26T11:30:28.275Z,33.36
2018-07-26T11:31:28.304Z,32.46
2018-07-26T11:32:28.318Z,34.03
2018-07-26T11:33:28.245Z,35.40
2018-07-26T11:34:28.244Z,35.38
2018-07-26T11:35:28.256Z,35.60
2018-07-26T11:36:28.209Z,35.40
2018-07-26T11:37:28.216Z,35.69
2018-07-26T11:38:28.221Z,35.50
2018-07-26T11:39:28.177Z,34.05
2018-07-26T11:40:28.170Z,35.91
2018-07-26T11:41:28.202Z,35.32
2018-07-26T11:42:28.183Z,35.61
2018-07-26T11:43:28.182Z,33.36
2018-07-26T11:44:28.152Z,33.34
2018-07-26T11:45:28.119Z,33.15
2018-07-26T11:46:28.104Z,33.14
2018-07-26T11:47:28.098Z,33.14
2018-07-26T11:48:28.138Z,33.41
2018-07-26T11:49:28.075Z,35.19
2018-07-26T11:50:28.061Z,33.33
2018-07-26T11:51:28.048Z,34.97
2018-07-26T11:52:28.042Z,35.27
2018-07-26T11:53:28.068Z,34.21
2018-07-26T11:54:28.026Z,34.58
2018-07-26T11:55:28.014Z,35.07
2018-07-26T11:56:27.997Z,32.82
2018-07-26T11:57:27.989Z,32.63
2018-07-26T11:58:28.017Z,31.54
2018-07-26T11:59:27.963Z,31.84
2018-07-26T12:00:28.001Z,32.50
2018-07-26T12:01:27.943Z,33.28
2018-07-26T12:02:27.964Z,33.07
2018-07-26T12:03:27.960Z,32.78
2018-07-26T12:04:27.915Z,33.07
2018-07-26T12:05:28.045Z,33.07
2018-07-26T12:06:27.899Z,34.06
2018-07-26T12:07:27.881Z,33.58
2018-07-26T12:08:27.870Z,34.26
2018-07-26T12:09:27.895Z,33.79
2018-07-26T12:10:27.854Z,34.96
2018-07-26T12:11:27.841Z,34.48
2018-07-26T12:12:27.833Z,34.39
2018-07-26T12:13:27.814Z,34.80
2018-07-26T12:14:27.861Z,34.70
2018-07-26T12:15:27.882Z,35.19
2018-07-26T12:16:27.790Z,35.09
2018-07-26T12:17:27.776Z,35.28
2018-07-26T12:18:27.807Z,34.80
2018-07-26T12:19:27.756Z,35.77
2018-07-26T12:20:27.751Z,35.09
2018-07-26T12:21:27.739Z,35.68
2018-07-26T12:22:27.787Z,34.70
2018-07-26T12:23:27.717Z,34.99
2018-07-26T12:24:28.296Z,35.48
2018-07-26T12:25:27.700Z,35.58
2018-07-26T12:26:27.682Z,35.48
2018-07-26T12:27:27.727Z,35.40
2018-07-26T12:28:27.700Z,35.60
2018-07-26T12:29:27.658Z,35.40
2018-07-26T12:30:27.645Z,35.11
2018-07-26T12:31:27.634Z,35.30
2018-07-26T12:32:27.623Z,34.21
2018-07-26T12:33:27.642Z,33.43
2018-07-26T12:34:27.607Z,34.01
2018-07-26T12:35:27.921Z,35.38
2018-07-26T12:36:27.582Z,33.61
2018-07-26T12:37:27.605Z,33.12
2018-07-26T12:38:27.563Z,34.09
2018-07-26T12:39:27.584Z,33.31
2018-07-26T12:40:27.544Z,32.43
2018-07-26T12:41:27.530Z,33.40
2018-07-26T12:42:27.525Z,33.30
2018-07-26T12:43:32.893Z,33.40
2018-07-26T12:44:27.499Z,33.98
2018-07-26T12:45:27.489Z,34.08
2018-07-26T12:46:27.479Z,34.68
2018-07-26T12:47:27.566Z,34.97
2018-07-26T12:48:27.612Z,34.68
2018-07-26T12:49:27.451Z,34.97
2018-07-26T12:50:27.437Z,35.58
2018-07-26T12:51:27.430Z,35.58
2018-07-26T12:52:27.452Z,35.50